Time;durP1;ratioP1;P1;durP2;ratioP2;P2;SDS_P1;SDS_P2;PMS_P1;PMS_P2;Temp;Humidity;BMP_temperature;BMP_pressure;BME280_temperature;BME280_humidity;BME280_pressure;Samples;Min_cycle;Max_cycle;Signal;HPM_P1;HPM_P2
2024/02/17 00:01:58;;;;;;;;;;;;;;;6.30;56.58;100504.16;5012362;28;20443;-88
2024/02/17 00:04:23;;;;;;;;;;;;;;;6.28;56.60;100503.44;5012192;28;19913;-88
2024/02/17 00:06:49;;;;;;;;;;;;;;;6.27;56.82;100507.03;5013313;28;19918;-88
2024/02/17 00:09:14;;;;;;;;;;;;;;;6.23;56.99;100500.38;5011752;28;19913;-88
2024/02/17 00:11:39;;;;;;;;;;;;;;;6.21;56.99;100502.28;5013354;28;19914;-88
2024/02/17 00:14:04;;;;;;;;;;;;;;;6.21;56.75;100510.16;5012002;28;19956;-88
2024/02/17 00:16:30;;;;;;;;;;;;;;;6.14;57.05;100505.53;5013004;28;19922;-88
2024/02/17 00:18:56;;;;;;;;;;;;;;;6.05;57.00;100505.34;5013051;28;19917;-88
2024/02/17 00:21:21;;;;;;;;;;;;;;;6.03;57.54;100506.41;5011770;28;19921;-88
2024/02/17 00:23:46;;;;;;;;;;;;;;;6.05;57.26;100505.34;5012976;28;19918;-86
2024/02/17 00:26:15;;;;;;;;;;;;;;;6.06;57.32;100506.16;5011506;28;19913;-87
2024/02/17 00:28:40;;;;;;;;;;;;;;;6.05;57.40;100507.97;5012683;28;20378;-88
2024/02/17 00:31:06;;;;;;;;;;;;;;;6.04;57.46;100505.47;5011530;28;19913;-88
2024/02/17 00:33:31;;;;;;;;;;;;;;;6.04;57.10;100513.31;5012858;28;20296;-87
2024/02/17 00:35:56;;;;;;;;;;;;;;;6.03;56.99;100511.66;5012830;28;20383;-88
2024/02/17 00:38:22;;;;;;;;;;;;;;;5.97;56.84;100515.63;5011619;28;19917;-88
2024/02/17 00:40:47;;;;;;;;;;;;;;;5.98;56.87;100513.81;5012850;28;20341;-87
2024/02/17 00:43:13;;;;;;;;;;;;;;;6.04;56.63;100508.91;5011507;28;20008;-87
2024/02/17 00:45:38;;;;;;;;;;;;;;;6.00;56.42;100509.28;5011339;28;19975;-88
2024/02/17 00:48:04;;;;;;;;;;;;;;;5.94;56.50;100510.59;5011412;28;20361;-88
2024/02/17 00:50:29;;;;;;;;;;;;;;;5.92;56.46;100514.28;5013122;28;20395;-87
2024/02/17 00:52:56;;;;;;;;;;;;;;;5.86;57.22;100504.28;5012638;28;19913;-87
2024/02/17 00:55:22;;;;;;;;;;;;;;;5.82;56.83;100508.94;5012103;28;19960;-88
2024/02/17 00:57:47;;;;;;;;;;;;;;;5.79;57.07;100508.34;5012574;28;19961;-88
2024/02/17 01:00:13;;;;;;;;;;;;;;;5.75;56.40;100505.97;5011526;28;19917;-88
2024/02/17 01:02:39;;;;;;;;;;;;;;;5.75;56.69;100505.16;5011161;28;19913;-88
2024/02/17 01:05:04;;;;;;;;;;;;;;;5.75;56.54;100499.91;5012459;28;19921;-87
2024/02/17 01:07:29;;;;;;;;;;;;;;;5.77;56.20;100499.78;5012401;28;19921;-88
2024/02/17 01:09:55;;;;;;;;;;;;;;;5.78;56.04;100504.91;5011152;28;19918;-88
2024/02/17 01:12:20;;;;;;;;;;;;;;;5.79;56.20;100510.97;5011012;28;20310;-88
2024/02/17 01:14:45;;;;;;;;;;;;;;;5.72;56.01;100510.63;5012499;28;20414;-87
2024/02/17 01:17:11;;;;;;;;;;;;;;;5.66;56.64;100514.56;5010738;28;19921;-88
2024/02/17 01:19:36;;;;;;;;;;;;;;;5.58;56.53;100509.13;5012250;28;20416;-87
2024/02/17 01:22:01;;;;;;;;;;;;;;;5.54;56.85;100506.88;5011078;28;19913;-87
2024/02/17 01:24:26;;;;;;;;;;;;;;;5.50;56.74;100503.66;5011215;28;19972;-85
2024/02/17 01:26:53;;;;;;;;;;;;;;;5.48;56.40;100508.19;5011384;28;19917;-86
2024/02/17 01:29:18;;;;;;;;;;;;;;;5.44;56.82;100506.75;5011176;28;19967;-86
2024/02/17 01:31:44;;;;;;;;;;;;;;;5.43;56.23;100507.72;5011408;28;19913;-86
2024/02/17 01:34:09;;;;;;;;;;;;;;;5.39;56.77;100503.69;5011916;28;19949;-85
2024/02/17 01:36:35;;;;;;;;;;;;;;;5.33;56.94;100497.13;5012453;28;20051;-85
2024/02/17 01:39:19;;;;;;;;;;;;;;;5.34;56.83;100501.41;5012514;28;19940;-84
2024/02/17 01:41:48;;;;;;;;;;;;;;;5.30;56.89;100499.16;5017803;28;19922;-85
2024/02/17 01:47:52;;;;;;;;;;;;;;;5.32;56.34;100498.09;5027477;28;19972;-86
2024/02/17 01:50:17;;;;;;;;;;;;;;;5.33;56.63;100491.06;5020963;28;20013;-85
2024/02/17 01:52:51;;;;;;;;;;;;;;;5.26;56.81;100501.19;5011486;28;20357;-84
2024/02/17 01:56:00;;;;;;;;;;;;;;;5.26;56.65;100500.38;5018174;28;20402;-86
2024/02/17 01:58:50;;;;;;;;;;;;;;;5.18;57.19;100497.47;5010583;28;19925;-85
2024/02/17 02:01:32;;;;;;;;;;;;;;;5.21;57.16;100497.28;5046286;28;19951;-84
2024/02/17 02:04:05;;;;;;;;;;;;;;;5.22;57.03;100493.69;5043364;28;19971;-85
2024/02/17 02:09:36;;;;;;;;;;;;;;;5.19;56.95;100489.50;5057201;28;19924;-83
2024/02/17 02:15:31;;;;;;;;;;;;;;;5.27;56.80;100487.16;5053523;28;19985;-84
2024/02/17 02:18:25;;;;;;;;;;;;;;;5.20;57.03;100492.97;5052441;28;19936;-84
2024/02/17 02:21:24;;;;;;;;;;;;;;;5.24;56.75;100483.94;5051906;28;19923;-85
2024/02/17 02:24:10;;;;;;;;;;;;;;;5.21;57.09;100492.88;5028654;28;20036;-84
2024/02/17 02:26:56;;;;;;;;;;;;;;;5.20;56.91;100488.59;5009646;28;19913;-84
2024/02/17 02:29:45;;;;;;;;;;;;;;;5.20;56.73;100483.34;5026061;28;19906;-84
2024/02/17 02:38:53;;;;;;;;;;;;;;;5.14;56.73;100488.19;5002167;28;19958;-84
2024/02/17 02:44:13;;;;;;;;;;;;;;;5.03;56.99;100489.88;5074486;23;20015;-89
2024/02/17 02:46:38;;;;;;;;;;;;;;;5.07;57.22;100491.31;5036724;28;19920;-89
2024/02/17 02:49:03;;;;;;;;;;;;;;;4.97;57.52;100486.91;5055241;28;20062;-89
2024/02/17 02:51:28;;;;;;;;;;;;;;;4.97;57.23;100494.75;5071765;28;19964;-88
2024/02/17 02:53:54;;;;;;;;;;;;;;;5.01;57.10;100488.34;5051013;28;19913;-90
2024/02/17 02:56:19;;;;;;;;;;;;;;;4.95;57.50;100497.50;5054715;28;19913;-90
2024/02/17 02:58:44;;;;;;;;;;;;;;;4.90;57.75;100494.41;5053310;28;19921;-89
2024/02/17 03:01:10;;;;;;;;;;;;;;;4.95;57.38;100494.88;5053260;28;20390;-90
2024/02/17 03:03:35;;;;;;;;;;;;;;;4.87;57.38;100501.66;5052971;28;20371;-90
2024/02/17 03:06:01;;;;;;;;;;;;;;;4.77;57.56;100504.13;5054085;28;20301;-89
2024/02/17 03:08:26;;;;;;;;;;;;;;;4.67;57.66;100496.16;5052920;28;19923;-89
2024/02/17 03:10:51;;;;;;;;;;;;;;;4.66;57.63;100509.34;5053427;28;19917;-87
2024/02/17 03:13:16;;;;;;;;;;;;;;;4.72;57.42;100498.44;5053057;28;20344;-88
2024/02/17 03:15:42;;;;;;;;;;;;;;;4.76;57.45;100508.53;5052965;28;20010;-90
2024/02/17 03:18:07;;;;;;;;;;;;;;;4.77;57.61;100504.97;5052619;28;19946;-88
2024/02/17 03:20:32;;;;;;;;;;;;;;;4.82;57.31;100502.00;5053913;28;19913;-89
2024/02/17 03:22:58;;;;;;;;;;;;;;;4.91;57.49;100509.16;5053991;28;19939;-89
2024/02/17 03:25:23;;;;;;;;;;;;;;;5.00;56.91;100505.00;5052976;28;19919;-90
2024/02/17 03:27:49;;;;;;;;;;;;;;;5.06;56.96;100501.88;5053929;28;19920;-90
2024/02/17 03:30:14;;;;;;;;;;;;;;;5.05;57.09;100508.91;5052653;28;19943;-90
2024/02/17 03:32:40;;;;;;;;;;;;;;;5.06;56.66;100513.19;5052427;28;19995;-90
2024/02/17 03:35:06;;;;;;;;;;;;;;;5.07;56.85;100512.25;5053917;28;19913;-90
2024/02/17 03:37:31;;;;;;;;;;;;;;;5.04;56.56;100512.47;5052365;28;19913;-89
2024/02/17 03:39:57;;;;;;;;;;;;;;;5.00;56.64;100513.66;5052288;28;20394;-90
2024/02/17 03:42:23;;;;;;;;;;;;;;;4.96;57.00;100509.63;5053313;28;19960;-89
2024/02/17 03:44:48;;;;;;;;;;;;;;;4.93;56.86;100517.72;5052152;28;20437;-90
2024/02/17 03:47:13;;;;;;;;;;;;;;;4.90;56.88;100519.72;5052197;28;19962;-91
2024/02/17 03:49:39;;;;;;;;;;;;;;;4.88;56.81;100517.22;5052335;28;20382;-89
2024/02/17 03:52:04;;;;;;;;;;;;;;;4.85;57.29;100512.22;5053549;28;19943;-90
2024/02/17 03:54:30;;;;;;;;;;;;;;;4.81;56.99;100513.41;5053705;28;19916;-89
2024/02/17 03:56:55;;;;;;;;;;;;;;;4.79;57.16;100517.94;5052305;28;19912;-89
2024/02/17 03:59:20;;;;;;;;;;;;;;;4.76;56.99;100520.78;5052286;28;19916;-89
2024/02/17 04:01:45;;;;;;;;;;;;;;;4.68;57.16;100524.00;5052125;28;19913;-89
2024/02/17 04:04:11;;;;;;;;;;;;;;;4.62;57.34;100523.63;5053279;28;19951;-89
2024/02/17 04:06:36;;;;;;;;;;;;;;;4.63;57.13;100531.34;5053319;28;19913;-88
2024/02/17 04:09:02;;;;;;;;;;;;;;;4.60;57.25;100534.19;5051919;28;20366;-87
2024/02/17 04:11:27;;;;;;;;;;;;;;;4.58;57.12;100527.41;5052081;28;19927;-87
2024/02/17 04:13:53;;;;;;;;;;;;;;;4.54;57.17;100539.06;5053320;28;19912;-88
2024/02/17 04:16:19;;;;;;;;;;;;;;;4.55;57.20;100538.94;5052274;28;19916;-88
2024/02/17 04:18:47;;;;;;;;;;;;;;;4.55;56.96;100540.72;5053299;28;19971;-88
2024/02/17 04:21:12;;;;;;;;;;;;;;;4.54;57.03;100532.03;5053373;28;20469;-88
2024/02/17 04:23:38;;;;;;;;;;;;;;;4.55;56.90;100536.31;5051987;28;19960;-86
2024/02/17 04:29:16;;;;;;;;;;;;;;;4.47;57.05;100534.28;5147096;22;19964;-85
2024/02/17 04:31:42;;;;;;;;;;;;;;;4.47;57.26;100533.44;5056252;28;20394;-86
2024/02/17 04:34:07;;;;;;;;;;;;;;;4.47;56.82;100539.50;5062345;28;19931;-85
2024/02/17 04:39:35;;;;;;;;;;;;;;;4.37;57.27;100538.50;5074461;28;20079;-84
2024/02/17 04:45:23;;;;;;;;;;;;;;;4.31;57.30;100545.97;5075910;28;20388;-85
2024/02/17 04:54:28;;;;;;;;;;;;;;;4.36;57.25;100555.13;5079015;28;19912;-84
2024/02/17 04:57:06;;;;;;;;;;;;;;;4.36;57.30;100551.69;5039372;28;20052;-84
2024/02/17 05:00:06;;;;;;;;;;;;;;;4.31;57.67;100559.88;5034881;28;19928;-86
2024/02/17 05:02:57;;;;;;;;;;;;;;;4.34;57.33;100557.03;5039907;28;19925;-84
2024/02/17 05:24:08;;;;;;;;;;;;;;;4.39;57.57;100575.00;5056494;28;19923;-84
2024/02/17 05:27:02;;;;;;;;;;;;;;;4.41;57.63;100575.72;5023275;28;19984;-84
2024/02/17 05:32:54;;;;;;;;;;;;;;;4.44;57.35;100583.34;5055302;28;19943;-84
2024/02/17 05:44:56;;;;;;;;;;;;;;;4.40;57.53;100590.56;5071122;28;19943;-84
2024/02/17 05:47:30;;;;;;;;;;;;;;;4.47;57.04;100586.59;5045779;28;19921;-86
2024/02/17 05:50:07;;;;;;;;;;;;;;;4.50;56.78;100595.16;5054662;28;19920;-85
2024/02/17 05:52:40;;;;;;;;;;;;;;;4.40;57.29;100594.97;5057840;28;19913;-85
2024/02/17 05:55:39;;;;;;;;;;;;;;;4.31;57.91;100593.84;5059760;28;19913;-85
2024/02/17 06:01:41;;;;;;;;;;;;;;;4.15;57.67;100599.38;5074360;28;19928;-84
2024/02/17 06:07:49;;;;;;;;;;;;;;;4.28;57.65;100601.09;5037858;28;19953;-84
2024/02/17 06:17:22;;;;;;;;;;;;;;;4.44;57.64;100605.09;5215379;22;19925;-86
2024/02/17 06:22:50;;;;;;;;;;;;;;;4.39;58.05;100608.97;5045797;28;19928;-86
2024/02/17 06:25:15;;;;;;;;;;;;;;;4.42;57.52;100617.44;5015876;28;19913;-86
2024/02/17 06:27:41;;;;;;;;;;;;;;;4.42;57.82;100616.59;5031968;28;19951;-86
2024/02/17 06:30:11;;;;;;;;;;;;;;;4.39;58.32;100624.66;5030313;28;20513;-87
2024/02/17 06:32:36;;;;;;;;;;;;;;;4.47;57.89;100627.59;5013063;28;19963;-87
2024/02/17 06:35:02;;;;;;;;;;;;;;;4.44;57.83;100618.16;5029947;28;20406;-87
2024/02/17 06:37:27;;;;;;;;;;;;;;;4.49;57.95;100627.47;5029976;28;19913;-87
2024/02/17 06:39:52;;;;;;;;;;;;;;;4.63;57.33;100622.91;5012789;28;20000;-87
2024/02/17 06:42:18;;;;;;;;;;;;;;;4.66;57.28;100632.28;5029085;28;19955;-87
2024/02/17 06:44:43;;;;;;;;;;;;;;;4.71;57.59;100625.78;5012888;28;19919;-88
2024/02/17 06:47:08;;;;;;;;;;;;;;;4.76;57.67;100622.81;5029263;28;19917;-87
2024/02/17 06:49:35;;;;;;;;;;;;;;;4.79;57.90;100628.66;5030011;28;19917;-89
2024/02/17 06:52:01;;;;;;;;;;;;;;;4.88;57.74;100628.91;5049784;28;19919;-89
2024/02/17 06:54:26;;;;;;;;;;;;;;;4.97;57.50;100636.06;5051262;28;19913;-89
2024/02/17 06:56:51;;;;;;;;;;;;;;;5.06;57.77;100635.38;5054836;28;20271;-89
2024/02/17 06:59:17;;;;;;;;;;;;;;;5.15;57.94;100634.69;5053583;28;19917;-89
2024/02/17 07:01:42;;;;;;;;;;;;;;;5.23;57.40;100628.88;5053399;28;19971;-89
2024/02/17 07:04:08;;;;;;;;;;;;;;;5.33;57.62;100637.72;5053013;28;20302;-89
2024/02/17 07:06:34;;;;;;;;;;;;;;;5.37;56.96;100639.13;5053177;28;20439;-89
2024/02/17 07:08:59;;;;;;;;;;;;;;;5.41;57.27;100656.28;5054282;28;20004;-90
2024/02/17 07:11:24;;;;;;;;;;;;;;;5.54;57.03;100632.59;5052955;28;20012;-90
2024/02/17 07:13:49;;;;;;;;;;;;;;;5.67;56.97;100633.31;5052985;28;19913;-89
2024/02/17 07:16:15;;;;;;;;;;;;;;;5.78;57.47;100632.47;5053991;28;20523;-89
2024/02/17 07:18:42;;;;;;;;;;;;;;;5.87;57.43;100626.50;5052720;28;19923;-89
2024/02/17 07:21:07;;;;;;;;;;;;;;;5.98;57.39;100634.41;5052740;28;19912;-88
2024/02/17 07:23:33;;;;;;;;;;;;;;;6.08;57.88;100630.09;5052685;28;19919;-88
2024/02/17 07:25:58;;;;;;;;;;;;;;;6.15;57.78;100623.41;5053990;28;19913;-89
2024/02/17 07:28:23;;;;;;;;;;;;;;;6.24;57.70;100625.28;5052649;28;19924;-89
2024/02/17 07:30:49;;;;;;;;;;;;;;;6.34;57.71;100630.63;5052597;28;20359;-90
2024/02/17 07:33:16;;;;;;;;;;;;;;;6.45;58.24;100630.59;5054071;28;19920;-88
2024/02/17 07:35:44;;;;;;;;;;;;;;;6.53;59.01;100624.72;5054038;28;20313;-91
2024/02/17 07:38:10;;;;;;;;;;;;;;;6.63;58.66;100625.63;5052609;28;19913;-90
2024/02/17 07:40:35;;;;;;;;;;;;;;;6.77;59.11;100621.88;5053745;28;19919;-90
2024/02/17 07:43:01;;;;;;;;;;;;;;;6.89;58.30;100619.06;5052483;28;20004;-90
2024/02/17 07:45:26;;;;;;;;;;;;;;;7.04;57.11;100618.75;5052256;28;19916;-88
2024/02/17 07:47:51;;;;;;;;;;;;;;;7.16;57.48;100621.16;5052677;28;19974;-90
2024/02/17 07:50:17;;;;;;;;;;;;;;;7.23;58.21;100626.72;5054010;28;19913;-90
2024/02/17 07:52:42;;;;;;;;;;;;;;;7.29;59.09;100624.41;5052425;28;19913;-90
2024/02/17 07:55:07;;;;;;;;;;;;;;;7.37;58.87;100631.66;5052470;28;20309;-88
2024/02/17 07:57:33;;;;;;;;;;;;;;;7.46;59.21;100627.44;5052971;28;19999;-88
2024/02/17 07:59:58;;;;;;;;;;;;;;;7.53;58.92;100624.16;5065092;28;19948;-87
2024/02/17 08:02:24;;;;;;;;;;;;;;;7.62;59.32;100625.97;5061181;28;19917;-88
2024/02/17 08:04:49;;;;;;;;;;;;;;;7.69;57.48;100628.91;5052704;28;20339;-88
2024/02/17 08:07:15;;;;;;;;;;;;;;;7.76;58.71;100629.22;5052994;28;20279;-88
2024/02/17 08:09:40;;;;;;;;;;;;;;;7.81;58.58;100630.47;5053126;28;19919;-88
2024/02/17 08:12:06;;;;;;;;;;;;;;;7.89;58.05;100628.00;5051832;28;19959;-88
2024/02/17 08:14:31;;;;;;;;;;;;;;;7.98;58.05;100631.63;5051696;28;19913;-89
2024/02/17 08:16:57;;;;;;;;;;;;;;;8.06;55.71;100628.31;5052861;28;19928;-88
2024/02/17 08:19:22;;;;;;;;;;;;;;;8.11;56.55;100634.00;5051595;28;19974;-89
2024/02/17 08:21:47;;;;;;;;;;;;;;;8.19;56.85;100642.91;5051562;28;19913;-88
2024/02/17 08:24:12;;;;;;;;;;;;;;;8.31;56.73;100630.47;5051362;28;20357;-88
2024/02/17 08:26:38;;;;;;;;;;;;;;;8.36;56.70;100630.09;5051332;28;19945;-89
2024/02/17 08:29:03;;;;;;;;;;;;;;;8.44;56.67;100638.94;5051312;28;19917;-88
2024/02/17 08:31:28;;;;;;;;;;;;;;;8.55;55.78;100641.44;5051350;28;19996;-88
2024/02/17 08:33:54;;;;;;;;;;;;;;;8.58;57.55;100645.59;5051544;28;19913;-88
2024/02/17 08:36:19;;;;;;;;;;;;;;;8.63;57.60;100640.75;5052821;28;20004;-89
2024/02/17 08:38:45;;;;;;;;;;;;;;;8.65;57.82;100643.25;5052905;28;20007;-88
2024/02/17 08:41:10;;;;;;;;;;;;;;;8.68;56.94;100632.44;5053234;28;19912;-88
2024/02/17 08:43:35;;;;;;;;;;;;;;;8.77;56.78;100642.97;5051530;28;19920;-88
2024/02/17 08:46:00;;;;;;;;;;;;;;;8.83;57.31;100641.59;5051147;28;19917;-88
2024/02/17 08:48:26;;;;;;;;;;;;;;;8.88;56.91;100653.34;5052945;28;20310;-88
2024/02/17 08:50:54;;;;;;;;;;;;;;;8.93;56.94;100650.34;5052735;28;19977;-88
2024/02/17 08:53:19;;;;;;;;;;;;;;;8.98;57.18;100637.56;5052566;28;19920;-88
2024/02/17 08:55:45;;;;;;;;;;;;;;;8.98;56.51;100644.66;5052748;28;20310;-88
2024/02/17 08:58:10;;;;;;;;;;;;;;;9.08;55.43;100641.03;5051490;28;19912;-88
2024/02/17 09:00:36;;;;;;;;;;;;;;;9.16;55.56;100643.78;5051175;28;19916;-88
2024/02/17 09:03:02;;;;;;;;;;;;;;;9.31;55.94;100646.78;5050965;28;19967;-88
2024/02/17 09:05:27;;;;;;;;;;;;;;;9.43;56.25;100647.44;5050886;28;19913;-88
2024/02/17 09:07:53;;;;;;;;;;;;;;;9.59;55.41;100647.69;5050959;28;19952;-88
2024/02/17 09:10:18;;;;;;;;;;;;;;;9.65;56.05;100643.63;5050850;28;20443;-88
2024/02/17 09:12:43;;;;;;;;;;;;;;;9.68;55.86;100638.91;5052473;28;19913;-88
2024/02/17 09:15:09;;;;;;;;;;;;;;;9.76;55.00;100638.19;5050869;28;19935;-88
2024/02/17 09:17:34;;;;;;;;;;;;;;;9.88;54.69;100637.03;5050847;28;20471;-88
2024/02/17 09:19:59;;;;;;;;;;;;;;;9.93;55.26;100636.59;5050453;28;19974;-88
2024/02/17 09:22:24;;;;;;;;;;;;;;;10.05;54.35;100636.22;5050342;28;19935;-87
2024/02/17 09:24:53;;;;;;;;;;;;;;;10.22;53.74;100639.06;5051604;28;19917;-88
2024/02/17 09:27:18;;;;;;;;;;;;;;;10.28;54.45;100628.75;5050332;28;19912;-88
2024/02/17 09:29:45;;;;;;;;;;;;;;;10.36;54.33;100636.75;5051752;28;19913;-87
2024/02/17 09:32:10;;;;;;;;;;;;;;;10.34;54.37;100635.25;5050668;28;19913;-87
2024/02/17 09:34:36;;;;;;;;;;;;;;;10.26;54.30;100633.34;5051115;28;20003;-88
2024/02/17 09:37:01;;;;;;;;;;;;;;;10.23;54.94;100641.56;5052666;28;19920;-88
2024/02/17 09:39:27;;;;;;;;;;;;;;;10.29;53.63;100630.41;5052597;28;19947;-88
2024/02/17 09:41:54;;;;;;;;;;;;;;;10.25;54.35;100634.34;5063461;28;19923;-87
2024/02/17 09:44:19;;;;;;;;;;;;;;;10.27;53.93;100631.53;5058224;28;19920;-88
2024/02/17 09:46:45;;;;;;;;;;;;;;;10.31;54.20;100636.38;5051714;28;19909;-88
2024/02/17 09:49:10;;;;;;;;;;;;;;;10.40;53.97;100637.28;5051546;28;19917;-88
2024/02/17 09:51:36;;;;;;;;;;;;;;;10.45;53.93;100630.59;5050435;28;19962;-88
2024/02/17 09:54:01;;;;;;;;;;;;;;;10.45;53.78;100624.50;5048867;28;19916;-88
2024/02/17 09:56:27;;;;;;;;;;;;;;;10.40;54.53;100634.66;5050202;28;19913;-88
2024/02/17 09:58:52;;;;;;;;;;;;;;;10.34;54.37;100622.03;5051396;28;19921;-88
2024/02/17 10:01:19;;;;;;;;;;;;;;;10.38;54.52;100618.94;5051301;28;19913;-88
2024/02/17 10:03:45;;;;;;;;;;;;;;;10.49;54.30;100616.13;5051339;28;19905;-88
2024/02/17 10:06:12;;;;;;;;;;;;;;;10.66;53.51;100614.44;5051484;28;19921;-87
2024/02/17 10:08:37;;;;;;;;;;;;;;;10.76;53.75;100607.28;5051308;28;19912;-87
2024/02/17 10:11:03;;;;;;;;;;;;;;;10.88;53.73;100610.50;5051291;28;20336;-87
2024/02/17 10:13:28;;;;;;;;;;;;;;;11.01;52.74;100602.16;5051294;28;20404;-87
2024/02/17 10:15:53;;;;;;;;;;;;;;;11.05;52.91;100596.41;5051184;28;20397;-87
2024/02/17 10:18:19;;;;;;;;;;;;;;;11.12;52.86;100596.63;5051262;28;19982;-87
2024/02/17 10:20:45;;;;;;;;;;;;;;;11.15;52.98;100604.25;5050074;28;19987;-87
2024/02/17 10:23:10;;;;;;;;;;;;;;;11.26;53.01;100604.00;5051521;28;19992;-87
2024/02/17 10:25:40;;;;;;;;;;;;;;;11.33;52.74;100607.69;5050268;28;19919;-87
2024/02/17 10:28:06;;;;;;;;;;;;;;;11.34;53.18;100590.81;5052578;28;19917;-87
2024/02/17 10:30:32;;;;;;;;;;;;;;;11.35;53.17;100587.19;5055172;28;20420;-87
2024/02/17 10:32:58;;;;;;;;;;;;;;;11.49;51.92;100590.22;5054739;28;19913;-87
2024/02/17 10:35:24;;;;;;;;;;;;;;;11.55;52.09;100593.06;5054884;28;20282;-87
2024/02/17 10:37:50;;;;;;;;;;;;;;;11.63;52.13;100601.03;5053297;28;19919;-87
2024/02/17 10:40:16;;;;;;;;;;;;;;;11.57;51.83;100591.09;5054560;28;19917;-87
2024/02/17 10:42:41;;;;;;;;;;;;;;;11.67;51.81;100586.50;5053330;28;19917;-87
2024/02/17 10:45:06;;;;;;;;;;;;;;;11.81;51.52;100597.50;5054847;28;19920;-87
2024/02/17 10:47:36;;;;;;;;;;;;;;;11.92;51.72;100589.31;5055003;28;19912;-87
2024/02/17 10:50:12;;;;;;;;;;;;;;;12.04;51.56;100583.53;5054957;28;20306;-87
2024/02/17 10:52:59;;;;;;;;;;;;;;;12.18;51.24;100586.53;5054176;28;20026;-87
2024/02/17 10:55:25;;;;;;;;;;;;;;;12.18;51.39;100587.38;5044709;28;19919;-87
2024/02/17 10:57:54;;;;;;;;;;;;;;;12.18;51.14;100579.44;5054845;28;19987;-87
2024/02/17 11:00:20;;;;;;;;;;;;;;;12.19;50.18;100572.31;5055083;28;20516;-87
2024/02/17 11:02:47;;;;;;;;;;;;;;;12.30;50.74;100582.59;5054508;28;19935;-87
2024/02/17 11:05:12;;;;;;;;;;;;;;;12.40;50.13;100588.56;5054132;28;19913;-86
2024/02/17 11:07:38;;;;;;;;;;;;;;;12.42;49.74;100578.63;5054233;28;19912;-87
2024/02/17 11:10:07;;;;;;;;;;;;;;;12.41;50.18;100576.97;5054324;28;20382;-87
2024/02/17 11:12:32;;;;;;;;;;;;;;;12.35;50.36;100573.16;5054396;28;20448;-87
2024/02/17 11:15:08;;;;;;;;;;;;;;;12.46;50.52;100568.53;5054294;28;20008;-87
2024/02/17 11:17:40;;;;;;;;;;;;;;;12.53;50.48;100578.31;5054112;28;19928;-86
2024/02/17 11:20:15;;;;;;;;;;;;;;;12.59;49.90;100569.69;5054715;28;19924;-86
2024/02/17 11:22:45;;;;;;;;;;;;;;;12.59;49.71;100569.69;5058177;28;19991;-86
2024/02/17 11:25:11;;;;;;;;;;;;;;;12.49;49.41;100574.31;5059638;28;19919;-86
2024/02/17 11:27:42;;;;;;;;;;;;;;;12.51;49.84;100567.03;5053343;28;19912;-86
2024/02/17 11:30:08;;;;;;;;;;;;;;;12.50;49.82;100564.56;5054530;28;19910;-86
2024/02/17 11:32:33;;;;;;;;;;;;;;;12.46;49.24;100565.88;5053929;28;19913;-87
2024/02/17 11:34:59;;;;;;;;;;;;;;;12.50;49.33;100552.16;5052416;28;20042;-86
2024/02/17 11:37:25;;;;;;;;;;;;;;;12.44;49.30;100559.94;5053725;28;20381;-86
2024/02/17 11:39:51;;;;;;;;;;;;;;;12.35;49.32;100562.56;5052847;28;19991;-87
2024/02/17 11:42:17;;;;;;;;;;;;;;;12.36;49.59;100555.44;5053630;28;20377;-87
2024/02/17 11:44:45;;;;;;;;;;;;;;;12.37;49.59;100559.75;5053554;28;19912;-86
2024/02/17 11:47:10;;;;;;;;;;;;;;;12.43;49.69;100556.44;5052437;28;20445;-86
2024/02/17 11:49:36;;;;;;;;;;;;;;;12.50;49.32;100549.50;5053718;28;19963;-87
2024/02/17 11:52:01;;;;;;;;;;;;;;;12.55;49.05;100541.06;5052490;28;20389;-86
2024/02/17 11:54:29;;;;;;;;;;;;;;;12.43;49.09;100540.56;5052493;28;19913;-87
2024/02/17 11:56:54;;;;;;;;;;;;;;;12.33;49.05;100550.50;5053824;28;19916;-87
2024/02/17 11:59:19;;;;;;;;;;;;;;;12.27;49.34;100545.84;5052300;28;19923;-86
2024/02/17 12:01:48;;;;;;;;;;;;;;;12.22;49.86;100549.00;5053630;28;19916;-86
2024/02/17 12:04:15;;;;;;;;;;;;;;;12.14;49.75;100535.75;5053622;28;19931;-86
2024/02/17 12:06:40;;;;;;;;;;;;;;;12.12;49.86;100547.50;5053481;28;20364;-86
2024/02/17 12:09:06;;;;;;;;;;;;;;;12.14;49.78;100546.34;5053353;28;19996;-86
2024/02/17 12:11:32;;;;;;;;;;;;;;;12.19;49.66;100544.03;5053436;28;19912;-86
2024/02/17 12:13:57;;;;;;;;;;;;;;;12.15;50.02;100548.00;5051926;28;19913;-86
2024/02/17 12:16:22;;;;;;;;;;;;;;;12.12;49.70;100535.09;5051657;28;20018;-86
2024/02/17 12:18:48;;;;;;;;;;;;;;;12.15;49.76;100544.50;5053119;28;20301;-87
2024/02/17 12:21:14;;;;;;;;;;;;;;;12.11;50.28;100537.88;5052000;28;19913;-87
2024/02/17 12:23:40;;;;;;;;;;;;;;;12.17;50.49;100537.22;5053336;28;19912;-86
2024/02/17 12:26:07;;;;;;;;;;;;;;;12.19;50.36;100537.91;5052971;28;19912;-87
2024/02/17 12:28:32;;;;;;;;;;;;;;;12.24;49.77;100538.22;5053144;28;19912;-87
2024/02/17 12:30:58;;;;;;;;;;;;;;;12.22;49.93;100548.16;5053246;28;19919;-87
2024/02/17 12:33:23;;;;;;;;;;;;;;;12.19;49.75;100544.03;5051825;28;20031;-86
2024/02/17 12:35:49;;;;;;;;;;;;;;;12.11;50.34;100546.66;5052963;28;19913;-87
2024/02/17 12:38:17;;;;;;;;;;;;;;;12.08;50.42;100539.88;5053005;28;19915;-87
2024/02/17 12:40:44;;;;;;;;;;;;;;;12.08;50.33;100545.16;5051528;28;20310;-86
2024/02/17 12:43:16;;;;;;;;;;;;;;;12.08;50.09;100542.53;5051476;28;20000;-87
2024/02/17 12:45:41;;;;;;;;;;;;;;;12.07;50.14;100546.16;5052827;28;19980;-86
2024/02/17 12:48:08;;;;;;;;;;;;;;;12.09;50.60;100538.88;5053090;28;19999;-86
2024/02/17 12:50:34;;;;;;;;;;;;;;;12.17;49.75;100543.34;5051805;28;19924;-86
2024/02/17 12:53:11;;;;;;;;;;;;;;;12.02;49.62;100511.41;5052930;28;19948;-87
2024/02/17 12:55:37;;;;;;;;;;;;;;;12.21;50.09;100541.22;5052951;28;20398;-85
2024/02/17 12:58:02;;;;;;;;;;;;;;;12.14;49.94;100542.84;5052754;28;19919;-86
2024/02/17 13:00:28;;;;;;;;;;;;;;;12.15;49.88;100547.16;5052875;28;20405;-86
2024/02/17 13:02:53;;;;;;;;;;;;;;;12.15;50.29;100544.50;5051847;28;19996;-86
2024/02/17 13:05:18;;;;;;;;;;;;;;;12.22;50.18;100541.03;5063668;28;20437;-85
2024/02/17 13:07:43;;;;;;;;;;;;;;;12.15;50.07;100547.16;5059888;28;20010;-87
2024/02/17 13:10:09;;;;;;;;;;;;;;;12.14;50.46;100554.28;5052143;28;19909;-87
2024/02/17 13:12:35;;;;;;;;;;;;;;;12.15;50.54;100547.16;5052251;28;19920;-87
2024/02/17 13:15:00;;;;;;;;;;;;;;;12.15;50.49;100547.16;5050901;28;19968;-87
2024/02/17 13:17:25;;;;;;;;;;;;;;;12.19;50.49;100532.59;5050428;28;19927;-87
2024/02/17 13:19:50;;;;;;;;;;;;;;;12.23;49.71;100539.22;5051659;28;19925;-86
2024/02/17 13:22:18;;;;;;;;;;;;;;;12.17;50.52;100546.00;5049716;28;21625;-87
2024/02/17 13:24:43;;;;;;;;;;;;;;;12.18;50.38;100539.72;5051781;28;19913;-86
2024/02/17 13:27:08;;;;;;;;;;;;;;;12.21;50.25;100543.84;5051795;28;19913;-86
2024/02/17 13:29:34;;;;;;;;;;;;;;;12.21;50.27;100541.22;5051641;28;19919;-86
2024/02/17 13:31:59;;;;;;;;;;;;;;;12.27;49.90;100541.38;5050484;28;19944;-86
2024/02/17 13:34:25;;;;;;;;;;;;;;;12.26;49.86;100541.53;5051713;28;19920;-86
2024/02/17 13:36:50;;;;;;;;;;;;;;;12.23;50.15;100544.53;5051918;28;20404;-87
2024/02/17 13:39:16;;;;;;;;;;;;;;;12.23;50.18;100541.88;5050143;28;19917;-86
2024/02/17 13:41:41;;;;;;;;;;;;;;;12.24;50.15;100552.31;5050394;28;19968;-86
2024/02/17 13:44:07;;;;;;;;;;;;;;;12.24;50.24;100544.34;5051570;28;19916;-86
2024/02/17 13:46:32;;;;;;;;;;;;;;;12.29;50.13;100547.34;5051788;28;19967;-86
2024/02/17 13:48:57;;;;;;;;;;;;;;;12.30;49.94;100554.28;5050422;28;19913;-86
2024/02/17 13:51:23;;;;;;;;;;;;;;;12.31;50.08;100555.94;5051797;28;20342;-86
2024/02/17 13:53:48;;;;;;;;;;;;;;;12.35;49.73;100548.50;5051784;28;20022;-87
2024/02/17 13:56:14;;;;;;;;;;;;;;;12.40;49.98;100551.47;5051778;28;20321;-86
2024/02/17 13:58:39;;;;;;;;;;;;;;;12.41;49.79;100564.56;5050338;28;19917;-86
2024/02/17 14:01:05;;;;;;;;;;;;;;;12.44;49.92;100558.09;5050304;28;19913;-86
2024/02/17 14:03:31;;;;;;;;;;;;;;;12.43;49.75;100561.75;5052400;28;19920;-86
2024/02/17 14:05:58;;;;;;;;;;;;;;;12.39;49.97;100568.38;5054466;28;19913;-86
2024/02/17 14:08:23;;;;;;;;;;;;;;;12.34;49.76;100560.91;5054473;28;19913;-86